Time;durP1;ratioP1;P1;durP2;ratioP2;P2;SDS_P1;SDS_P2;PMS_P1;PMS_P2;Temp;Humidity;BMP_temperature;BMP_pressure;BME280_temperature;BME280_humidity;BME280_pressure;Samples;Min_cycle;Max_cycle;Signal;HPM_P1;HPM_P2
2022/09/10 00:01:59;;;;;;;2.50;0.50;;;;;;;;;;5064916;28;20494;-57
2022/09/10 00:04:25;;;;;;;3.40;0.88;;;;;;;;;;5065897;28;20040;-57
2022/09/10 00:06:50;;;;;;;1.77;0.70;;;;;;;;;;5065683;28;20033;-57
2022/09/10 00:09:15;;;;;;;2.60;0.60;;;;;;;;;;5063770;28;20461;-56
2022/09/10 00:11:42;;;;;;;2.60;0.60;;;;;;;;;;5063618;28;20025;-56
2022/09/10 00:14:12;;;;;;;1.67;0.75;;;;;;;;;;5066058;28;20402;-57
2022/09/10 00:16:37;;;;;;;0.50;0.50;;;;;;;;;;5060117;28;20028;-57
2022/09/10 00:19:03;;;;;;;1.52;0.70;;;;;;;;;;5066243;28;20078;-57
2022/09/10 00:21:29;;;;;;;2.75;0.90;;;;;;;;;;5060936;28;20029;-57
2022/09/10 00:23:55;;;;;;;1.40;0.55;;;;;;;;;;5066031;28;20287;-57
2022/09/10 00:26:37;;;;;;;4.53;0.85;;;;;;;;;;5059085;28;20035;-57
2022/09/10 00:29:05;;;;;;;2.97;0.68;;;;;;;;;;5061128;28;20418;-57
2022/09/10 00:31:32;;;;;;;1.52;0.70;;;;;;;;;;5057735;28;20056;-57
2022/09/10 00:33:58;;;;;;;1.77;0.60;;;;;;;;;;5062123;28;20138;-57
2022/09/10 00:36:31;;;;;;;1.10;0.55;;;;;;;;;;5066378;28;20074;-57
2022/09/10 00:38:59;;;;;;;2.05;0.50;;;;;;;;;;5063714;28;20035;-57
2022/09/10 00:41:25;;;;;;;1.08;0.52;;;;;;;;;;5062543;28;20033;-56
2022/09/10 00:44:32;;;;;;;1.05;0.50;;;;;;;;;;5066614;28;20052;-56
2022/09/10 00:46:58;;;;;;;2.60;0.80;;;;;;;;;;5065893;28;20415;-56
2022/09/10 00:49:31;;;;;;;2.90;0.68;;;;;;;;;;5065067;28;20111;-57
2022/09/10 00:51:57;;;;;;;2.85;0.70;;;;;;;;;;5063697;28;20064;-56
2022/09/10 00:54:25;;;;;;;2.00;0.57;;;;;;;;;;5063327;28;20052;-58
2022/09/10 00:56:53;;;;;;;1.35;0.50;;;;;;;;;;5064266;28;20491;-57
2022/09/10 00:59:22;;;;;;;1.67;0.70;;;;;;;;;;5065255;28;20070;-58
2022/09/10 01:01:48;;;;;;;2.08;0.95;;;;;;;;;;5063194;28;20474;-57
2022/09/10 01:04:14;;;;;;;3.47;0.68;;;;;;;;;;5065733;28;20075;-57
2022/09/10 01:06:43;;;;;;;2.17;0.70;;;;;;;;;;5062376;28;20025;-58
2022/09/10 01:09:09;;;;;;;1.25;0.52;;;;;;;;;;5063854;28;20037;-57
2022/09/10 01:11:41;;;;;;;1.48;0.82;;;;;;;;;;5060786;28;20366;-57
2022/09/10 01:14:25;;;;;;;2.78;0.80;;;;;;;;;;5066217;28;20123;-57
2022/09/10 01:17:21;;;;;;;3.70;0.98;;;;;;;;;;5064132;28;20036;-57
2022/09/10 01:20:11;;;;;;;2.28;0.80;;;;;;;;;;5064329;28;20021;-57
2022/09/10 01:22:49;;;;;;;1.38;0.68;;;;;;;;;;5060857;28;20060;-57
2022/09/10 01:25:52;;;;;;;1.35;0.70;;;;;;;;;;5063693;28;20504;-57
2022/09/10 01:28:29;;;;;;;3.03;0.77;;;;;;;;;;5061425;28;20052;-56
2022/09/10 01:31:05;;;;;;;3.40;0.90;;;;;;;;;;5062970;28;20032;-57
2022/09/10 01:33:40;;;;;;;2.40;0.60;;;;;;;;;;5065113;28;20389;-56
2022/09/10 01:36:13;;;;;;;2.28;0.80;;;;;;;;;;5065616;28;20028;-56
2022/09/10 01:38:40;;;;;;;3.10;0.80;;;;;;;;;;5068012;28;20036;-56
2022/09/10 01:41:07;;;;;;;3.15;0.85;;;;;;;;;;5066031;28;20115;-57
2022/09/10 01:43:33;;;;;;;4.47;1.00;;;;;;;;;;5069102;28;20103;-57
2022/09/10 01:46:35;;;;;;;2.58;0.70;;;;;;;;;;5067102;28;20037;-56
2022/09/10 01:49:01;;;;;;;3.08;0.82;;;;;;;;;;5068418;28;20059;-56
2022/09/10 01:51:37;;;;;;;2.45;0.90;;;;;;;;;;5068381;28;20063;-56
2022/09/10 01:54:29;;;;;;;1.13;0.75;;;;;;;;;;5062725;28;20021;-56
2022/09/10 01:57:04;;;;;;;2.85;1.08;;;;;;;;;;5068072;28;20525;-56
2022/09/10 02:00:09;;;;;;;2.08;0.60;;;;;;;;;;5066298;28;20520;-57
2022/09/10 02:02:58;;;;;;;2.70;1.00;;;;;;;;;;5069113;28;20528;-57
2022/09/10 02:05:27;;;;;;;3.35;1.02;;;;;;;;;;5062851;28;20049;-57
2022/09/10 02:08:01;;;;;;;5.70;1.02;;;;;;;;;;5069290;28;20021;-56
2022/09/10 02:10:27;;;;;;;4.97;0.95;;;;;;;;;;5066452;28;20094;-56
2022/09/10 02:12:53;;;;;;;1.20;0.77;;;;;;;;;;5061262;28;20051;-56
2022/09/10 02:15:21;;;;;;;3.17;0.80;;;;;;;;;;5066492;28;20112;-57
2022/09/10 02:17:48;;;;;;;5.18;1.10;;;;;;;;;;5064448;28;20539;-57
2022/09/10 02:20:14;;;;;;;2.90;0.77;;;;;;;;;;5069211;28;20040;-57
2022/09/10 02:22:45;;;;;;;1.48;0.80;;;;;;;;;;5067240;28;20024;-57
2022/09/10 02:25:11;;;;;;;1.75;0.82;;;;;;;;;;5066882;28;20041;-57
2022/09/10 02:27:37;;;;;;;2.92;0.82;;;;;;;;;;5066100;28;20409;-57
2022/09/10 02:30:04;;;;;;;3.53;0.80;;;;;;;;;;5064733;28;20021;-57
2022/09/10 02:32:29;;;;;;;1.98;0.80;;;;;;;;;;5058334;28;20520;-57
2022/09/10 02:34:55;;;;;;;2.03;0.80;;;;;;;;;;5062689;28;20025;-58
2022/09/10 02:37:20;;;;;;;2.03;0.70;;;;;;;;;;5063758;28;20459;-56
2022/09/10 02:39:46;;;;;;;2.75;0.90;;;;;;;;;;5062255;28;21729;-56
2022/09/10 02:42:15;;;;;;;1.83;0.90;;;;;;;;;;5066314;28;20655;-56
2022/09/10 02:44:41;;;;;;;3.10;1.00;;;;;;;;;;5066689;28;20468;-56
2022/09/10 02:47:06;;;;;;;2.05;1.00;;;;;;;;;;5067950;28;20024;-56
2022/09/10 02:49:33;;;;;;;2.13;1.23;;;;;;;;;;5064757;28;20063;-57
2022/09/10 02:52:01;;;;;;;3.03;0.88;;;;;;;;;;5066561;28;20025;-56
2022/09/10 02:54:27;;;;;;;1.15;0.77;;;;;;;;;;5065601;28;20433;-56
2022/09/10 02:56:52;;;;;;;1.00;0.82;;;;;;;;;;5068197;28;20050;-57
2022/09/10 02:59:18;;;;;;;2.83;0.95;;;;;;;;;;5066866;28;20206;-57
2022/09/10 03:01:43;;;;;;;3.13;0.93;;;;;;;;;;5064225;28;20131;-57
2022/09/10 03:04:09;;;;;;;2.85;0.90;;;;;;;;;;5062337;28;20033;-57
2022/09/10 03:06:37;;;;;;;4.32;1.00;;;;;;;;;;5063330;28;20111;-57
2022/09/10 03:09:02;;;;;;;1.90;0.80;;;;;;;;;;5065451;28;20104;-57
2022/09/10 03:11:28;;;;;;;2.47;0.80;;;;;;;;;;5061277;28;20119;-56
2022/09/10 03:13:54;;;;;;;2.45;1.05;;;;;;;;;;5066463;28;20036;-56
2022/09/10 03:16:20;;;;;;;2.25;1.00;;;;;;;;;;5063294;28;20043;-57
2022/09/10 03:18:45;;;;;;;3.15;1.00;;;;;;;;;;5063902;28;20032;-57
2022/09/10 03:21:17;;;;;;;2.13;1.00;;;;;;;;;;5062349;28;20036;-57
2022/09/10 03:23:44;;;;;;;4.13;1.00;;;;;;;;;;5064465;28;20028;-56
2022/09/10 03:26:10;;;;;;;3.00;0.98;;;;;;;;;;5064093;28;20042;-56
2022/09/10 03:28:36;;;;;;;2.95;0.98;;;;;;;;;;5062386;28;20031;-58
2022/09/10 03:31:05;;;;;;;1.52;0.98;;;;;;;;;;5056771;28;20024;-57
2022/09/10 03:33:31;;;;;;;1.83;1.00;;;;;;;;;;5063083;28;20559;-57
2022/09/10 03:35:57;;;;;;;5.95;1.10;;;;;;;;;;5061564;28;20055;-58
2022/09/10 03:38:22;;;;;;;2.50;0.70;;;;;;;;;;5068503;28;20382;-59
2022/09/10 03:40:49;;;;;;;2.33;0.82;;;;;;;;;;5067659;28;20025;-58
2022/09/10 03:43:15;;;;;;;2.72;0.95;;;;;;;;;;5066593;28;20025;-59
2022/09/10 03:45:41;;;;;;;2.42;0.80;;;;;;;;;;5056263;28;20505;-59
2022/09/10 03:48:06;;;;;;;2.80;0.80;;;;;;;;;;5069780;28;20025;-59
2022/09/10 03:50:32;;;;;;;4.25;0.95;;;;;;;;;;5066611;28;20035;-59
2022/09/10 03:52:57;;;;;;;3.83;0.90;;;;;;;;;;5061442;28;20063;-59
2022/09/10 03:55:23;;;;;;;2.53;0.95;;;;;;;;;;5065505;28;20035;-59
2022/09/10 03:57:48;;;;;;;3.58;0.95;;;;;;;;;;5064197;28;20035;-59
2022/09/10 04:00:14;;;;;;;2.60;1.00;;;;;;;;;;5065406;28;20103;-59
2022/09/10 04:02:40;;;;;;;1.77;0.85;;;;;;;;;;5063285;28;20461;-58
2022/09/10 04:05:07;;;;;;;3.53;1.00;;;;;;;;;;5060475;28;20119;-58
2022/09/10 04:07:33;;;;;;;0.68;0.60;;;;;;;;;;5063495;28;20499;-59
2022/09/10 04:09:58;;;;;;;2.55;0.98;;;;;;;;;;5068248;28;20029;-57
2022/09/10 04:12:25;;;;;;;1.77;0.80;;;;;;;;;;5061972;28;20050;-58
2022/09/10 04:14:51;;;;;;;3.47;0.95;;;;;;;;;;5062020;28;20032;-57
2022/09/10 04:17:17;;;;;;;6.22;1.15;;;;;;;;;;5064203;28;20036;-57
2022/09/10 04:19:42;;;;;;;2.90;0.90;;;;;;;;;;5064945;28;20513;-57
2022/09/10 04:22:08;;;;;;;3.35;1.00;;;;;;;;;;5061171;28;20035;-58
2022/09/10 04:24:33;;;;;;;2.33;0.90;;;;;;;;;;5066372;28;20440;-58
2022/09/10 04:27:00;;;;;;;2.88;0.95;;;;;;;;;;5062891;28;20040;-57
2022/09/10 04:29:26;;;;;;;2.28;0.80;;;;;;;;;;5061964;28;20040;-57
2022/09/10 04:31:51;;;;;;;2.67;1.02;;;;;;;;;;5062010;28;20021;-57
2022/09/10 04:34:17;;;;;;;1.40;1.30;;;;;;;;;;5063918;28;20120;-57
2022/09/10 04:36:42;;;;;;;4.50;0.88;;;;;;;;;;5057634;28;20027;-57
2022/09/10 04:39:08;;;;;;;5.25;0.95;;;;;;;;;;5063244;28;20036;-57
2022/09/10 04:41:33;;;;;;;1.52;0.98;;;;;;;;;;5061112;28;20025;-57
2022/09/10 04:43:59;;;;;;;1.00;0.68;;;;;;;;;;5062060;28;20597;-57
2022/09/10 04:46:24;;;;;;;2.55;0.90;;;;;;;;;;5065895;28;20044;-58
2022/09/10 04:48:50;;;;;;;3.67;1.10;;;;;;;;;;5065010;28;20032;-57
2022/09/10 04:51:16;;;;;;;3.10;0.80;;;;;;;;;;5069016;28;20024;-57
2022/09/10 04:53:42;;;;;;;1.15;0.60;;;;;;;;;;5070118;28;20113;-57
2022/09/10 04:56:07;;;;;;;2.03;0.68;;;;;;;;;;5068729;28;20035;-57
2022/09/10 04:58:33;;;;;;;3.42;0.70;;;;;;;;;;5067983;28;20498;-58
2022/09/10 05:00:58;;;;;;;3.15;0.70;;;;;;;;;;5067463;28;20024;-57
2022/09/10 05:03:23;;;;;;;2.92;0.82;;;;;;;;;;5068723;28;20041;-59
2022/09/10 05:05:49;;;;;;;1.98;0.70;;;;;;;;;;5066429;28;20032;-58
2022/09/10 05:08:15;;;;;;;0.98;0.73;;;;;;;;;;5066359;28;20031;-59
2022/09/10 05:10:41;;;;;;;1.25;0.82;;;;;;;;;;5067663;28;20051;-59
2022/09/10 05:13:07;;;;;;;2.00;0.77;;;;;;;;;;5065886;28;20052;-58
2022/09/10 05:15:34;;;;;;;1.10;0.70;;;;;;;;;;5067925;28;20025;-59
2022/09/10 05:18:00;;;;;;;1.35;0.50;;;;;;;;;;5061890;28;20419;-59
2022/09/10 05:20:26;;;;;;;1.95;0.70;;;;;;;;;;5061232;28;20032;-59
2022/09/10 05:22:55;;;;;;;1.10;0.63;;;;;;;;;;5062238;28;20390;-59
2022/09/10 05:25:21;;;;;;;2.80;0.70;;;;;;;;;;5070063;28;20493;-59
2022/09/10 05:27:48;;;;;;;3.70;0.63;;;;;;;;;;5064239;28;20067;-59
2022/09/10 05:30:14;;;;;;;2.50;1.10;;;;;;;;;;5064467;28;20062;-59
2022/09/10 05:32:39;;;;;;;1.17;0.60;;;;;;;;;;5061073;28;20029;-59
2022/09/10 05:35:08;;;;;;;3.88;0.75;;;;;;;;;;5063588;28;20048;-59
2022/09/10 05:37:33;;;;;;;5.03;0.70;;;;;;;;;;5068683;28;20028;-59
2022/09/10 05:39:59;;;;;;;1.02;0.50;;;;;;;;;;5070172;28;20020;-59
2022/09/10 05:42:25;;;;;;;1.27;0.95;;;;;;;;;;5069468;28;20390;-59
2022/09/10 05:44:50;;;;;;;0.90;0.70;;;;;;;;;;5067933;28;20037;-59
2022/09/10 05:47:16;;;;;;;1.73;0.75;;;;;;;;;;5069570;28;20032;-58
2022/09/10 05:49:41;;;;;;;2.65;0.60;;;;;;;;;;5067394;28;20025;-58
2022/09/10 05:52:08;;;;;;;1.95;0.50;;;;;;;;;;5068439;28;20029;-58
2022/09/10 05:54:34;;;;;;;1.40;0.60;;;;;;;;;;5069309;28;20029;-59
2022/09/10 05:57:00;;;;;;;0.88;0.70;;;;;;;;;;5068584;28;20032;-58
2022/09/10 05:59:25;;;;;;;1.00;0.90;;;;;;;;;;5066831;28;20029;-58
2022/09/10 06:01:51;;;;;;;2.45;0.80;;;;;;;;;;5064252;28;20464;-58
2022/09/10 06:04:18;;;;;;;3.80;1.35;;;;;;;;;;5066220;28;20055;-58
2022/09/10 06:06:44;;;;;;;5.10;1.30;;;;;;;;;;5063735;28;20025;-58
2022/09/10 06:09:10;;;;;;;8.70;4.18;;;;;;;;;;5065590;28;20542;-59
2022/09/10 06:11:36;;;;;;;3.75;1.65;;;;;;;;;;5064229;28;20124;-58
2022/09/10 06:14:01;;;;;;;3.65;1.35;;;;;;;;;;5070327;28;20024;-58
2022/09/10 06:16:27;;;;;;;3.92;0.75;;;;;;;;;;5067177;28;20052;-59
2022/09/10 06:18:53;;;;;;;1.33;0.50;;;;;;;;;;5069649;28;20433;-59
2022/09/10 06:21:19;;;;;;;0.80;0.60;;;;;;;;;;5063804;28;20082;-59
2022/09/10 06:23:44;;;;;;;1.70;0.60;;;;;;;;;;5058390;28;20087;-59
2022/09/10 06:26:12;;;;;;;2.15;0.75;;;;;;;;;;5061027;28;20028;-59
2022/09/10 06:28:38;;;;;;;1.60;0.70;;;;;;;;;;5062310;28;20031;-59
2022/09/10 06:31:04;;;;;;;1.65;0.90;;;;;;;;;;5064008;28;20107;-59
2022/09/10 06:33:30;;;;;;;2.03;0.80;;;;;;;;;;5062768;28;20047;-60
2022/09/10 06:35:58;;;;;;;2.33;0.70;;;;;;;;;;5056999;28;20020;-59
2022/09/10 06:38:28;;;;;;;2.42;0.77;;;;;;;;;;5069978;28;20426;-59
2022/09/10 06:40:54;;;;;;;1.42;0.70;;;;;;;;;;5067354;28;20021;-58
2022/09/10 06:43:25;;;;;;;3.38;1.27;;;;;;;;;;5068585;28;20081;-58
2022/09/10 06:45:54;;;;;;;1.50;0.55;;;;;;;;;;5065733;28;20064;-58
2022/09/10 06:48:27;;;;;;;4.00;0.90;;;;;;;;;;5059396;28;20115;-59
2022/09/10 06:50:56;;;;;;;8.27;2.55;;;;;;;;;;5060661;28;20048;-59
2022/09/10 06:53:23;;;;;;;5.68;2.17;;;;;;;;;;5067971;28;20028;-59
2022/09/10 06:55:49;;;;;;;5.05;1.02;;;;;;;;;;5067337;28;20473;-59
2022/09/10 06:58:16;;;;;;;3.72;2.10;;;;;;;;;;5063716;28;20103;-59
2022/09/10 07:00:42;;;;;;;4.25;1.90;;;;;;;;;;5063904;28;20025;-59
2022/09/10 07:03:08;;;;;;;2.85;1.33;;;;;;;;;;5064884;28;20059;-59
2022/09/10 07:05:33;;;;;;;3.88;0.90;;;;;;;;;;5064375;28;20107;-59
2022/09/10 07:07:59;;;;;;;1.48;1.10;;;;;;;;;;5063633;28;20509;-60
2022/09/10 07:10:24;;;;;;;0.65;0.65;;;;;;;;;;5062760;28;20029;-60
2022/09/10 07:12:49;;;;;;;1.05;0.80;;;;;;;;;;5062770;28;20028;-61
2022/09/10 07:15:15;;;;;;;0.95;0.80;;;;;;;;;;5064126;28;20099;-63
2022/09/10 07:17:40;;;;;;;1.17;0.93;;;;;;;;;;5058156;28;20031;-62
2022/09/10 07:20:07;;;;;;;1.58;0.70;;;;;;;;;;5063645;28;20024;-61
2022/09/10 07:22:32;;;;;;;1.48;0.75;;;;;;;;;;5065759;28;20025;-61
2022/09/10 07:24:59;;;;;;;3.25;0.80;;;;;;;;;;5061632;28;20098;-59
2022/09/10 07:27:24;;;;;;;1.95;0.70;;;;;;;;;;5063709;28;20024;-58
2022/09/10 07:29:50;;;;;;;1.33;0.70;;;;;;;;;;5058305;28;20028;-59
2022/09/10 07:32:17;;;;;;;3.17;1.00;;;;;;;;;;5061256;28;20058;-60
2022/09/10 07:34:42;;;;;;;1.95;0.90;;;;;;;;;;5066054;28;20374;-58
2022/09/10 07:37:08;;;;;;;1.65;0.70;;;;;;;;;;5064788;28;20025;-61
2022/09/10 07:39:33;;;;;;;2.60;0.70;;;;;;;;;;5063739;28;20050;-60
2022/09/10 07:41:59;;;;;;;2.20;1.27;;;;;;;;;;5063523;28;20027;-59
2022/09/10 07:44:24;;;;;;;1.52;1.10;;;;;;;;;;5065026;28;20024;-59
2022/09/10 07:46:51;;;;;;;1.92;1.30;;;;;;;;;;5064487;28;20039;-60
2022/09/10 07:49:17;;;;;;;2.58;1.20;;;;;;;;;;5064364;28;20021;-59
2022/09/10 07:51:42;;;;;;;3.47;1.30;;;;;;;;;;5056598;28;20094;-59
2022/09/10 07:54:07;;;;;;;2.15;0.70;;;;;;;;;;5066658;28;20371;-59
2022/09/10 07:56:33;;;;;;;1.00;0.60;;;;;;;;;;5065037;28;20028;-59
2022/09/10 07:59:01;;;;;;;1.70;0.70;;;;;;;;;;5056368;28;20020;-59
2022/09/10 08:01:26;;;;;;;2.33;1.23;;;;;;;;;;5057991;28;20085;-59
2022/09/10 08:03:56;;;;;;;3.85;1.30;;;;;;;;;;5063000;28;20107;-59
2022/09/10 08:06:22;;;;;;;;;;;;;;;;;;5063667;28;20127;-59
2022/09/10 08:08:48;;;;;;;2.25;0.80;;;;;;;;;;5062059;28;19961;-59
2022/09/10 08:11:16;;;;;;;1.58;0.50;;;;;;;;;;5060362;28;20032;-59
2022/09/10 08:13:47;;;;;;;1.30;0.30;;;;;;;;;;5063941;28;20474;-59
2022/09/10 08:16:18;;;;;;;0.55;0.40;;;;;;;;;;5066686;28;20029;-60
2022/09/10 08:18:45;;;;;;;0.52;0.28;;;;;;;;;;5061716;28;20036;-58
2022/09/10 08:21:11;;;;;;;1.80;0.73;;;;;;;;;;5063130;28;20394;-60
2022/09/10 08:23:40;;;;;;;2.40;0.65;;;;;;;;;;5062836;28;20024;-61
2022/09/10 08:26:07;;;;;;;2.88;0.77;;;;;;;;;;5058456;28;20033;-59
2022/09/10 08:28:33;;;;;;;1.00;0.40;;;;;;;;;;5059020;28;20482;-61
2022/09/10 08:31:00;;;;;;;2.15;0.40;;;;;;;;;;5057345;28;20104;-61
2022/09/10 08:33:27;;;;;;;1.10;0.43;;;;;;;;;;5064495;28;20474;-61
2022/09/10 08:35:57;;;;;;;0.30;0.30;;;;;;;;;;5064896;28;20032;-61
2022/09/10 08:38:34;;;;;;;3.42;1.83;;;;;;;;;;5064871;28;20032;-61
2022/09/10 08:41:01;;;;;;;1.95;0.55;;;;;;;;;;5058321;28;20094;-61
2022/09/10 08:43:41;;;;;;;1.10;0.60;;;;;;;;;;5065749;28;20033;-60
2022/09/10 08:46:21;;;;;;;1.63;0.60;;;;;;;;;;5062627;28;20029;-59
2022/09/10 08:48:53;;;;;;;6.60;1.27;;;;;;;;;;5062633;28;20025;-59
2022/09/10 08:51:26;;;;;;;0.98;0.65;;;;;;;;;;5063660;28;20021;-58
2022/09/10 08:54:09;;;;;;;1.08;0.70;;;;;;;;;;5064516;28;20128;-59
2022/09/10 08:56:34;;;;;;;1.40;0.63;;;;;;;;;;5059815;28;20486;-59
2022/09/10 08:59:04;;;;;;;2.50;0.77;;;;;;;;;;5058309;28;20038;-60
2022/09/10 09:01:59;;;;;;;2.38;0.57;;;;;;;;;;5063639;28;20029;-59
2022/09/10 09:04:51;;;;;;;0.95;0.68;;;;;;;;;;5056380;28;20036;-58
2022/09/10 09:07:19;;;;;;;1.52;0.57;;;;;;;;;;5057236;28;20402;-59
2022/09/10 09:09:50;;;;;;;2.85;0.65;;;;;;;;;;5060455;28;20021;-59
2022/09/10 09:13:00;;;;;;;2.35;0.70;;;;;;;;;;5056812;28;20028;-58
2022/09/10 09:15:50;;;;;;;1.45;0.70;;;;;;;;;;5061216;28;20503;-59
2022/09/10 09:18:39;;;;;;;1.77;0.95;;;;;;;;;;5060385;28;20130;-59
2022/09/10 09:21:23;;;;;;;;;;;;;;;;;;5061939;28;20107;-58
2022/09/10 09:23:54;;;;;;;2.70;0.80;;;;;;;;;;5057610;28;19920;-60
2022/09/10 09:26:21;;;;;;;3.90;0.98;;;;;;;;;;5061408;28;20028;-59
2022/09/10 09:28:55;;;;;;;2.80;0.80;;;;;;;;;;5062189;28;20120;-59
2022/09/10 09:31:30;;;;;;;4.35;0.70;;;;;;;;;;5063390;28;20505;-58
2022/09/10 09:34:03;;;;;;;3.42;0.80;;;;;;;;;;5066325;28;20028;-59
2022/09/10 09:36:37;;;;;;;4.38;0.90;;;;;;;;;;5068740;28;20023;-60
2022/09/10 09:39:14;;;;;;;1.50;0.63;;;;;;;;;;5068544;28;20025;-60
2022/09/10 09:41:51;;;;;;;2.72;0.50;;;;;;;;;;5066853;28;20028;-58
2022/09/10 09:44:28;;;;;;;5.68;1.80;;;;;;;;;;5065138;28;20074;-59
2022/09/10 09:46:54;;;;;;;4.18;0.90;;;;;;;;;;5058675;28;20406;-58
2022/09/10 09:49:19;;;;;;;3.47;0.77;;;;;;;;;;5063894;28;20029;-59
2022/09/10 09:51:47;;;;;;;5.15;1.30;;;;;;;;;;5065346;28;20021;-59
2022/09/10 09:54:21;;;;;;;2.53;0.90;;;;;;;;;;5067300;28;20074;-58
2022/09/10 09:56:53;;;;;;;4.95;1.10;;;;;;;;;;5064612;28;20021;-59
2022/09/10 09:59:25;;;;;;;7.10;0.90;;;;;;;;;;5061791;28;20059;-59
2022/09/10 10:01:51;;;;;;;5.10;1.30;;;;;;;;;;5061658;28;20032;-59
2022/09/10 10:04:23;;;;;;;3.45;1.10;;;;;;;;;;5067949;28;20097;-59
2022/09/10 10:06:57;;;;;;;4.00;1.00;;;;;;;;;;5066879;28;20016;-59
2022/09/10 10:09:26;;;;;;;5.78;1.63;;;;;;;;;;5068735;28;20393;-59
2022/09/10 10:11:58;;;;;;;3.65;1.10;;;;;;;;;;5061258;28;20024;-59
2022/09/10 10:14:29;;;;;;;5.95;1.40;;;;;;;;;;5063771;28;20036;-60
2022/09/10 10:16:55;;;;;;;4.50;1.30;;;;;;;;;;5061736;28;20409;-59
2022/09/10 10:19:35;;;;;;;2.97;1.15;;;;;;;;;;5067837;28;20024;-59
2022/09/10 10:22:29;;;;;;;2.95;1.30;;;;;;;;;;5065388;28;20025;-58
2022/09/10 10:24:55;;;;;;;1.88;0.98;;;;;;;;;;5064751;28;20045;-59
2022/09/10 10:27:23;;;;;;;4.32;1.08;;;;;;;;;;5065149;28;20513;-58
2022/09/10 10:30:15;;;;;;;1.42;1.00;;;;;;;;;;5067211;28;20445;-59
2022/09/10 10:32:50;;;;;;;2.25;0.80;;;;;;;;;;5069690;28;20194;-59
2022/09/10 10:35:25;;;;;;;1.80;1.02;;;;;;;;;;5061288;28;20027;-59
2022/09/10 10:37:59;;;;;;;3.03;1.10;;;;;;;;;;5066091;28;20054;-59
2022/09/10 10:40:32;;;;;;;21.52;2.58;;;;;;;;;;5068208;28;20041;-55
2022/09/10 10:43:35;;;;;;;18.70;3.53;;;;;;;;;;5066216;28;20036;-56
2022/09/10 10:46:09;;;;;;;10.20;4.13;;;;;;;;;;5066621;28;20561;-56
2022/09/10 10:49:19;;;;;;;20.50;9.73;;;;;;;;;;5066436;28;20035;-56
2022/09/10 10:52:18;;;;;;;30.27;19.10;;;;;;;;;;5072648;28;20494;-56
2022/09/10 10:54:56;;;;;;;123.60;65.32;;;;;;;;;;5063800;28;20033;-55
2022/09/10 10:57:56;;;;;;;37.47;18.42;;;;;;;;;;5067515;28;20414;-56
2022/09/10 11:00:23;;;;;;;54.70;34.67;;;;;;;;;;5062816;28;20413;-56
2022/09/10 11:03:01;;;;;;;19.00;12.07;;;;;;;;;;5061473;28;20031;-55
2022/09/10 11:05:37;;;;;;;15.43;8.35;;;;;;;;;;5059789;28;20073;-58
2022/09/10 11:08:41;;;;;;;11.38;5.22;;;;;;;;;;5060016;28;20487;-57
2022/09/10 11:11:30;;;;;;;7.75;4.88;;;;;;;;;;5060022;28;20094;-56
2022/09/10 11:14:00;;;;;;;7.55;3.78;;;;;;;;;;5060317;28;20024;-55
2022/09/10 11:16:36;;;;;;;4.15;1.13;;;;;;;;;;5067501;28;20016;-56
2022/09/10 11:19:23;;;;;;;34.10;12.63;;;;;;;;;;5059015;28;20499;-59
2022/09/10 11:22:12;;;;;;;2.00;1.00;;;;;;;;;;5063383;28;20059;-58
2022/09/10 11:24:44;;;;;;;2.10;0.82;;;;;;;;;;5064439;28;20047;-59
2022/09/10 11:27:25;;;;;;;7.18;1.10;;;;;;;;;;5063027;28;20037;-59
2022/09/10 11:30:02;;;;;;;2.85;0.88;;;;;;;;;;5067375;28;20549;-59
2022/09/10 11:32:49;;;;;;;3.25;1.00;;;;;;;;;;5066453;28;20460;-59
2022/09/10 11:35:21;;;;;;;11.00;3.80;;;;;;;;;;5061475;28;20103;-58
2022/09/10 11:38:01;;;;;;;44.20;16.67;;;;;;;;;;5058233;28;20041;-59
2022/09/10 11:40:37;;;;;;;57.35;22.65;;;;;;;;;;5063635;28;20028;-58
2022/09/10 11:43:09;;;;;;;35.33;12.68;;;;;;;;;;5062701;28;20024;-59
2022/09/10 11:45:54;;;;;;;3.35;1.30;;;;;;;;;;5059966;28;20033;-58
2022/09/10 11:48:27;;;;;;;8.18;2.03;;;;;;;;;;5064288;28;20044;-57
2022/09/10 11:50:58;;;;;;;2.35;1.08;;;;;;;;;;5062550;28;20040;-57
2022/09/10 11:53:25;;;;;;;2.92;0.95;;;;;;;;;;5062071;28;20093;-61
2022/09/10 11:56:05;;;;;;;1.35;0.70;;;;;;;;;;5064331;28;20095;-59
2022/09/10 11:58:48;;;;;;;2.47;0.70;;;;;;;;;;5063243;28;20066;-57
2022/09/10 12:01:23;;;;;;;4.78;0.90;;;;;;;;;;5063557;28;20545;-57
2022/09/10 12:04:04;;;;;;;6.57;1.55;;;;;;;;;;5065974;28;20482;-59
2022/09/10 12:06:42;;;;;;;3.50;0.90;;;;;;;;;;5063709;28;20055;-57
2022/09/10 12:09:36;;;;;;;3.25;0.70;;;;;;;;;;5060770;28;20036;-58
2022/09/10 12:12:27;;;;;;;3.75;1.02;;;;;;;;;;5070730;28;20498;-57
2022/09/10 12:14:53;;;;;;;3.50;0.60;;;;;;;;;;5057695;28;20032;-59
2022/09/10 12:17:32;;;;;;;2.53;0.77;;;;;;;;;;5058255;28;20033;-58
2022/09/10 12:20:01;;;;;;;1.30;0.80;;;;;;;;;;5065835;28;20028;-60
2022/09/10 12:22:35;;;;;;;2.38;0.88;;;;;;;;;;5062971;28;20477;-59
2022/09/10 12:25:05;;;;;;;6.60;2.47;;;;;;;;;;5064992;28;20036;-59
2022/09/10 12:27:56;;;;;;;3.90;1.45;;;;;;;;;;5066526;28;20042;-57
2022/09/10 12:30:32;;;;;;;3.15;1.27;;;;;;;;;;5064784;28;20035;-59
2022/09/10 12:33:23;;;;;;;4.43;1.67;;;;;;;;;;5064576;28;20024;-58
2022/09/10 12:35:49;;;;;;;16.52;3.65;;;;;;;;;;5056854;28;20025;-58
2022/09/10 12:38:46;;;;;;;20.88;3.63;;;;;;;;;;5058165;28;20070;-59
2022/09/10 12:41:14;;;;;;;3.20;1.08;;;;;;;;;;5063014;28;20036;-58
2022/09/10 12:43:39;;;;;;;3.78;0.90;;;;;;;;;;5064617;28;20020;-58
2022/09/10 12:46:08;;;;;;;2.55;0.95;;;;;;;;;;5065721;28;20541;-59
2022/09/10 12:48:40;;;;;;;2.47;0.90;;;;;;;;;;5064430;28;20387;-57
2022/09/10 12:51:25;;;;;;;2.65;0.80;;;;;;;;;;5062898;28;20033;-57
2022/09/10 12:53:59;;;;;;;1.67;0.90;;;;;;;;;;5067818;28;20564;-57
2022/09/10 12:56:40;;;;;;;1.80;0.77;;;;;;;;;;5059975;28;20055;-57
2022/09/10 12:59:40;;;;;;;2.15;1.00;;;;;;;;;;5063998;28;20020;-57
2022/09/10 13:02:45;;;;;;;3.45;0.95;;;;;;;;;;5061137;28;20423;-58
2022/09/10 13:05:43;;;;;;;3.28;0.95;;;;;;;;;;5071406;28;20036;-58
2022/09/10 13:08:14;;;;;;;4.20;1.20;;;;;;;;;;5061527;28;20432;-57
2022/09/10 13:11:02;;;;;;;4.50;0.90;;;;;;;;;;5066082;28;20507;-57
2022/09/10 13:13:34;;;;;;;3.00;0.80;;;;;;;;;;5062476;28;20037;-58
2022/09/10 13:16:00;;;;;;;4.60;1.10;;;;;;;;;;5061510;28;20024;-57
2022/09/10 13:18:28;;;;;;;4.38;0.95;;;;;;;;;;5063893;28;20041;-58
2022/09/10 13:20:54;;;;;;;1.63;0.88;;;;;;;;;;5067816;28;20129;-57
2022/09/10 13:23:47;;;;;;;7.70;1.17;;;;;;;;;;5062740;28;20041;-58
2022/09/10 13:26:24;;;;;;;41.28;2.25;;;;;;;;;;5063212;28;20063;-58
2022/09/10 13:28:51;;;;;;;62.38;3.88;;;;;;;;;;5063003;28;20051;-58
2022/09/10 13:31:21;;;;;;;3.97;1.20;;;;;;;;;;5068862;28;20044;-58
2022/09/10 13:33:52;;;;;;;3.95;1.05;;;;;;;;;;5063704;28;20024;-58
2022/09/10 13:36:51;;;;;;;7.50;1.00;;;;;;;;;;5068666;28;20120;-58
2022/09/10 13:39:30;;;;;;;3.22;0.80;;;;;;;;;;5069290;28;20020;-60
2022/09/10 13:42:33;;;;;;;1.45;0.55;;;;;;;;;;5067014;28;20105;-59
2022/09/10 13:45:36;;;;;;;2.92;0.98;;;;;;;;;;5069389;28;20032;-59
2022/09/10 13:48:13;;;;;;;1.75;0.70;;;;;;;;;;5065726;28;20036;-58
2022/09/10 13:50:48;;;;;;;1.05;0.60;;;;;;;;;;5068886;28;20042;-59
2022/09/10 13:53:16;;;;;;;2.05;0.90;;;;;;;;;;5069260;28;20058;-59
2022/09/10 13:56:00;;;;;;;1.58;0.50;;;;;;;;;;5065912;28;20483;-59
2022/09/10 13:58:32;;;;;;;3.65;0.50;;;;;;;;;;5066864;28;20040;-58
2022/09/10 14:00:59;;;;;;;2.72;0.93;;;;;;;;;;5064291;28;20032;-60
2022/09/10 14:03:33;;;;;;;0.88;0.60;;;;;;;;;;5065990;28;20434;-59
2022/09/10 14:06:20;;;;;;;1.48;0.68;;;;;;;;;;5061440;28;20390;-60
2022/09/10 14:08:53;;;;;;;2.03;0.80;;;;;;;;;;5064025;28;20379;-59
2022/09/10 14:11:23;;;;;;;2.47;0.80;;;;;;;;;;5061233;28;20044;-59
2022/09/10 14:14:03;;;;;;;2.53;1.33;;;;;;;;;;5069529;28;20109;-60
2022/09/10 14:16:31;;;;;;;1.80;1.05;;;;;;;;;;5062440;28;20024;-60
2022/09/10 14:19:00;;;;;;;2.97;0.90;;;;;;;;;;5063592;28;20033;-59
2022/09/10 14:21:26;;;;;;;3.40;0.77;;;;;;;;;;5060880;28;20033;-60
2022/09/10 14:23:57;;;;;;;3.65;0.80;;;;;;;;;;5066513;28;20667;-60
2022/09/10 14:26:26;;;;;;;2.83;0.68;;;;;;;;;;5066520;28;20506;-60
2022/09/10 14:29:12;;;;;;;2.05;0.70;;;;;;;;;;5068131;28;20111;-61
2022/09/10 14:31:38;;;;;;;1.95;0.70;;;;;;;;;;5065256;28;20040;-60
2022/09/10 14:34:31;;;;;;;2.05;0.73;;;;;;;;;;5068132;28;20078;-60
2022/09/10 14:37:01;;;;;;;1.35;0.93;;;;;;;;;;5067175;28;20037;-60
2022/09/10 14:39:27;;;;;;;2.95;1.10;;;;;;;;;;5068650;28;20486;-59
2022/09/10 14:42:21;;;;;;;2.55;1.17;;;;;;;;;;5063811;28;20031;-59
2022/09/10 14:44:47;;;;;;;3.85;1.80;;;;;;;;;;5066203;28;20052;-59
2022/09/10 14:47:21;;;;;;;2.53;1.00;;;;;;;;;;5067943;28;20513;-60
2022/09/10 14:49:46;;;;;;;1.40;0.80;;;;;;;;;;5068123;28;20028;-60
2022/09/10 14:52:13;;;;;;;1.98;0.80;;;;;;;;;;5063196;28;20030;-60
2022/09/10 14:54:39;;;;;;;4.88;1.23;;;;;;;;;;5064597;28;20389;-59
2022/09/10 14:57:11;;;;;;;4.75;1.48;;;;;;;;;;5064699;28;20069;-59
2022/09/10 14:59:45;;;;;;;3.40;0.80;;;;;;;;;;5063643;28;20040;-59
2022/09/10 15:02:30;;;;;;;2.45;0.85;;;;;;;;;;5062337;28;20482;-58
2022/09/10 15:04:56;;;;;;;6.22;1.10;;;;;;;;;;5063316;28;20040;-61
2022/09/10 15:07:24;;;;;;;3.83;1.40;;;;;;;;;;5058874;28;20415;-61
2022/09/10 15:09:52;;;;;;;13.10;1.92;;;;;;;;;;5064507;28;20028;-63
2022/09/10 15:12:22;;;;;;;27.77;2.45;;;;;;;;;;5060705;28;20261;-61